createdAt,value
2023-04-24T00:01:55.322Z,1.20
2023-04-24T00:04:21.653Z,1.40
2023-04-24T00:06:54.139Z,1.43
2023-04-24T00:09:20.348Z,1.20
2023-04-24T00:11:46.476Z,1.33
2023-04-24T00:14:12.599Z,1.10
2023-04-24T00:16:38.885Z,1.20
2023-04-24T00:19:06.092Z,1.10
2023-04-24T00:21:32.853Z,1.23
2023-04-24T00:24:00.076Z,1.07
2023-04-24T00:26:26.230Z,1.10
2023-04-24T00:28:52.359Z,1.33
2023-04-24T00:31:19.329Z,1.50
2023-04-24T00:33:45.447Z,1.50
2023-04-24T00:36:11.553Z,1.40
2023-04-24T00:38:37.676Z,1.63
2023-04-24T00:41:04.675Z,1.47
2023-04-24T00:43:30.782Z,1.60
2023-04-24T00:45:57.228Z,1.87
2023-04-24T00:48:23.945Z,1.80
2023-04-24T00:50:50.221Z,1.60
2023-04-24T00:53:16.463Z,1.77
2023-04-24T00:55:42.803Z,1.70
2023-04-24T00:58:09.836Z,1.50
2023-04-24T01:00:36.248Z,1.53
2023-04-24T01:03:06.279Z,1.37
2023-04-24T01:05:32.719Z,1.33
2023-04-24T01:07:59.577Z,1.13
2023-04-24T01:10:26.203Z,1.60
2023-04-24T01:12:52.480Z,1.77
2023-04-24T01:15:19.529Z,1.40
2023-04-24T01:17:45.831Z,1.70
2023-04-24T01:20:12.231Z,1.60
2023-04-24T01:22:38.973Z,2.30
2023-04-24T01:25:06.101Z,2.50
2023-04-24T01:27:32.302Z,2.90
2023-04-24T01:29:58.555Z,2.90
2023-04-24T01:32:25.059Z,3.00
2023-04-24T01:34:51.387Z,3.47
2023-04-24T01:37:17.523Z,3.60
2023-04-24T01:39:44.540Z,4.20
2023-04-24T01:42:10.956Z,3.80
2023-04-24T01:44:37.214Z,4.00
2023-04-24T01:47:03.679Z,4.30
2023-04-24T01:49:30.064Z,4.13
2023-04-24T01:51:56.185Z,4.30
2023-04-24T01:54:22.421Z,4.10
2023-04-24T01:56:49.240Z,3.97
2023-04-24T01:59:16.285Z,4.33
2023-04-24T02:01:42.402Z,4.13
2023-04-24T02:04:09.275Z,4.30
2023-04-24T02:06:35.640Z,4.97
2023-04-24T02:09:03.067Z,4.70
2023-04-24T02:11:29.289Z,4.47
2023-04-24T02:13:56.028Z,4.70
2023-04-24T02:16:22.278Z,5.47
2023-04-24T02:18:48.491Z,5.70
2023-04-24T02:21:14.835Z,5.80
2023-04-24T02:23:40.958Z,5.50
2023-04-24T02:26:07.142Z,5.37
2023-04-24T02:28:33.330Z,5.60
2023-04-24T02:31:00.804Z,5.70
2023-04-24T02:33:26.902Z,6.10
2023-04-24T02:35:53.054Z,6.33
2023-04-24T02:38:19.249Z,5.97
2023-04-24T02:40:45.364Z,6.83
2023-04-24T02:43:11.475Z,7.10
2023-04-24T02:45:38.756Z,6.37
2023-04-24T02:48:05.764Z,6.70
2023-04-24T02:50:33.722Z,6.47
2023-04-24T02:52:59.982Z,7.20
2023-04-24T02:55:26.136Z,7.63
2023-04-24T02:57:52.242Z,8.00
2023-04-24T03:00:18.610Z,7.53
2023-04-24T03:02:45.805Z,7.60
2023-04-24T03:05:12.753Z,8.47
2023-04-24T03:07:38.929Z,7.97
2023-04-24T03:10:06.323Z,7.73
2023-04-24T03:12:32.583Z,7.93
2023-04-24T03:14:58.716Z,7.47
2023-04-24T03:17:25.093Z,7.70
2023-04-24T03:19:51.233Z,7.63
2023-04-24T03:22:17.964Z,8.00
2023-04-24T03:24:44.075Z,7.63
2023-04-24T03:27:10.235Z,7.57
2023-04-24T03:29:36.360Z,8.13
2023-04-24T03:32:02.567Z,7.50
2023-04-24T03:34:28.735Z,7.33
2023-04-24T03:36:54.894Z,7.30
2023-04-24T03:39:21.778Z,7.37
2023-04-24T03:41:47.888Z,7.70
2023-04-24T03:44:14.079Z,7.77
2023-04-24T03:46:40.270Z,7.43
2023-04-24T03:49:06.454Z,7.93
2023-04-24T03:51:32.615Z,8.27
2023-04-24T03:53:58.745Z,7.50
2023-04-24T03:56:25.522Z,7.80
2023-04-24T03:58:51.662Z,7.40
2023-04-24T04:01:18.970Z,7.50
2023-04-24T04:03:45.332Z,7.90
2023-04-24T04:06:13.214Z,7.43
2023-04-24T04:08:39.438Z,7.93
2023-04-24T04:11:05.671Z,8.77
2023-04-24T04:13:32.475Z,8.07
2023-04-24T04:15:58.671Z,7.87
2023-04-24T04:18:24.881Z,8.60
2023-04-24T04:20:51.067Z,7.70
2023-04-24T04:23:17.152Z,7.80
2023-04-24T04:25:43.335Z,7.63
2023-04-24T04:28:09.497Z,7.23
2023-04-24T04:30:38.487Z,7.33
2023-04-24T04:33:04.653Z,7.50
2023-04-24T04:35:30.792Z,8.00
2023-04-24T04:37:59.053Z,8.10
2023-04-24T04:40:25.461Z,7.70
2023-04-24T04:42:53.214Z,7.50
2023-04-24T04:45:20.725Z,8.40
2023-04-24T04:47:47.633Z,7.97
2023-04-24T04:50:14.179Z,7.87
2023-04-24T04:52:40.421Z,7.13
2023-04-24T04:55:07.976Z,7.77
2023-04-24T04:57:34.172Z,7.23
2023-04-24T05:00:00.365Z,7.13
2023-04-24T05:02:26.656Z,7.43
2023-04-24T05:04:53.730Z,7.27
2023-04-24T05:07:20.142Z,7.27
2023-04-24T05:09:46.354Z,7.10
2023-04-24T05:12:12.514Z,6.87
2023-04-24T05:14:38.662Z,6.90
2023-04-24T05:17:05.020Z,6.37
2023-04-24T05:19:33.159Z,6.17
2023-04-24T05:22:03.354Z,6.30
2023-04-24T05:24:29.552Z,5.27
2023-04-24T05:26:57.258Z,6.07
2023-04-24T05:29:23.446Z,6.10
2023-04-24T05:31:49.694Z,6.57
2023-04-24T05:34:16.951Z,6.67
2023-04-24T05:36:43.123Z,5.93
2023-04-24T05:39:10.008Z,6.57
2023-04-24T05:41:36.170Z,7.40
2023-04-24T05:44:02.329Z,7.10
2023-04-24T05:46:28.561Z,7.07
2023-04-24T05:48:54.938Z,7.00
2023-04-24T05:51:21.076Z,7.47
2023-04-24T05:53:47.247Z,8.20
2023-04-24T05:56:14.260Z,7.80
2023-04-24T05:58:40.942Z,7.50
2023-04-24T06:01:07.442Z,7.70
2023-04-24T06:03:33.670Z,6.90
2023-04-24T06:06:00.237Z,7.67
2023-04-24T06:08:26.462Z,7.90
2023-04-24T06:10:52.604Z,6.87
2023-04-24T06:13:19.438Z,6.80
2023-04-24T06:15:45.531Z,6.63
2023-04-24T06:18:12.725Z,5.90
2023-04-24T06:20:39.313Z,6.20
2023-04-24T06:23:05.466Z,6.10
2023-04-24T06:25:31.641Z,6.60
2023-04-24T06:27:58.020Z,6.00
2023-04-24T06:30:25.814Z,5.87
2023-04-24T06:32:52.017Z,5.50
2023-04-24T06:35:18.416Z,5.83
2023-04-24T06:37:44.775Z,5.57
2023-04-24T06:40:11.380Z,5.50
2023-04-24T06:42:37.631Z,5.50
2023-04-24T06:45:05.298Z,5.70
2023-04-24T06:47:32.133Z,5.17
2023-04-24T06:49:58.296Z,5.27
2023-04-24T06:52:24.429Z,5.00
2023-04-24T06:54:50.582Z,5.57
2023-04-24T06:57:16.687Z,4.67
2023-04-24T06:59:43.391Z,5.07
2023-04-24T07:02:09.816Z,4.53
2023-04-24T07:04:36.995Z,4.57
2023-04-24T07:07:04.845Z,4.83
2023-04-24T07:09:30.962Z,4.77
2023-04-24T07:11:57.115Z,4.03
2023-04-24T07:14:23.672Z,4.20
2023-04-24T07:16:50.028Z,4.27
2023-04-24T07:19:16.178Z,4.03
2023-04-24T07:21:43.061Z,3.67
2023-04-24T07:24:10.964Z,3.70
2023-04-24T07:26:37.775Z,2.80
2023-04-24T07:29:03.897Z,2.70
2023-04-24T07:31:30.374Z,2.60
2023-04-24T07:33:58.376Z,2.50
2023-04-24T07:36:26.129Z,2.00
2023-04-24T07:38:52.912Z,2.20
2023-04-24T07:41:19.042Z,1.50
2023-04-24T07:43:45.949Z,1.40
2023-04-24T07:46:12.166Z,0.90
2023-04-24T07:48:38.339Z,0.93
2023-04-24T07:51:04.483Z,0.80
2023-04-24T07:53:30.641Z,0.50
2023-04-24T07:55:57.430Z,0.60
2023-04-24T07:58:23.583Z,0.60
2023-04-24T08:00:49.815Z,0.80
2023-04-24T08:03:18.987Z,0.70
2023-04-24T08:05:45.313Z,1.00
2023-04-24T08:08:11.535Z,0.70
2023-04-24T08:10:37.654Z,0.60
2023-04-24T08:13:04.426Z,0.50
2023-04-24T08:15:30.561Z,0.60
2023-04-24T08:17:59.089Z,0.67
2023-04-24T08:20:25.479Z,0.90
2023-04-24T08:22:51.709Z,1.30
2023-04-24T08:25:18.734Z,1.50
2023-04-24T08:27:45.003Z,2.00
2023-04-24T08:30:12.354Z,2.10
2023-04-24T08:32:38.629Z,2.60
2023-04-24T08:35:05.464Z,3.10
2023-04-24T08:37:31.602Z,3.00
2023-04-24T08:39:57.755Z,3.37
2023-04-24T08:42:24.495Z,3.13
2023-04-24T08:44:50.671Z,3.57
2023-04-24T08:47:17.687Z,3.53
2023-04-24T08:49:45.679Z,3.40
2023-04-24T08:52:13.314Z,4.40
2023-04-24T08:54:40.549Z,3.70
2023-04-24T08:57:08.187Z,3.73
2023-04-24T08:59:34.486Z,3.77
2023-04-24T09:02:00.856Z,3.97
2023-04-24T09:04:29.233Z,4.00
2023-04-24T09:06:57.872Z,3.40
2023-04-24T09:09:24.356Z,2.80
2023-04-24T09:11:50.900Z,3.07
2023-04-24T09:14:17.386Z,2.90
2023-04-24T09:16:43.968Z,2.80
2023-04-24T09:19:10.236Z,3.13
2023-04-24T09:21:37.048Z,3.00
2023-04-24T09:24:05.790Z,3.30
2023-04-24T09:26:32.944Z,3.43
2023-04-24T09:28:59.764Z,3.77
2023-04-24T09:31:28.272Z,3.57
2023-04-24T09:33:55.133Z,3.53
2023-04-24T09:36:27.659Z,3.53
2023-04-24T09:38:58.608Z,3.37
2023-04-24T09:41:24.848Z,3.70
2023-04-24T09:43:50.986Z,3.43
2023-04-24T09:46:19.094Z,4.10
2023-04-24T09:48:45.314Z,4.00
2023-04-24T09:51:12.445Z,3.97
2023-04-24T09:53:39.466Z,4.30
2023-04-24T09:56:09.229Z,4.10
2023-04-24T09:58:36.571Z,4.80
2023-04-24T10:01:02.906Z,5.13
2023-04-24T10:03:30.957Z,5.17
2023-04-24T10:05:59.529Z,5.03
2023-04-24T10:08:26.428Z,5.80
2023-04-24T10:10:52.942Z,5.70
2023-04-24T10:13:19.874Z,6.17
2023-04-24T10:15:47.222Z,6.70
2023-04-24T10:18:13.452Z,6.60
2023-04-24T10:20:40.969Z,6.30
2023-04-24T10:23:07.395Z,5.87
2023-04-24T10:25:34.734Z,6.70
2023-04-24T10:28:01.847Z,6.00
2023-04-24T10:30:30.236Z,6.40
2023-04-24T10:32:56.568Z,6.10
2023-04-24T10:35:26.853Z,6.20
2023-04-24T10:37:57.055Z,6.23
2023-04-24T10:40:27.383Z,5.93
2023-04-24T10:42:53.776Z,6.27
2023-04-24T10:45:22.213Z,6.57
2023-04-24T10:47:59.421Z,6.93
2023-04-24T10:50:27.282Z,6.13
2023-04-24T10:52:54.912Z,6.37
2023-04-24T10:55:45.856Z,5.50
2023-04-24T10:58:12.198Z,4.77
2023-04-24T11:00:39.406Z,5.13
2023-04-24T11:03:07.026Z,5.20
2023-04-24T11:05:52.353Z,4.93
2023-04-24T11:08:24.016Z,4.97
2023-04-24T11:10:56.756Z,5.90
2023-04-24T11:13:23.450Z,5.00
2023-04-24T11:16:13.988Z,4.80
2023-04-24T11:18:45.417Z,4.77
2023-04-24T11:21:12.581Z,4.80
2023-04-24T11:23:38.913Z,4.23
2023-04-24T11:26:18.271Z,4.80
2023-04-24T11:28:47.968Z,4.93
2023-04-24T11:31:39.812Z,5.50
2023-04-24T11:34:08.469Z,4.40
2023-04-24T11:36:35.554Z,4.17
2023-04-24T11:39:01.765Z,4.00
2023-04-24T11:41:28.726Z,4.43
2023-04-24T11:46:21.738Z,4.30
2023-04-24T11:48:47.946Z,3.77
2023-04-24T11:51:14.832Z,4.10
2023-04-24T11:53:41.149Z,4.50
2023-04-24T11:56:10.021Z,4.30
2023-04-24T11:58:36.530Z,4.20
2023-04-24T12:01:03.028Z,4.37
2023-04-24T12:03:29.481Z,3.57
2023-04-24T12:06:06.243Z,3.63
2023-04-24T12:08:33.082Z,4.00
2023-04-24T12:11:01.229Z,3.83
2023-04-24T12:13:27.505Z,3.40
2023-04-24T12:15:53.893Z,3.20
2023-04-24T12:18:22.965Z,3.53
2023-04-24T12:20:49.226Z,3.47
2023-04-24T12:23:15.528Z,3.67
2023-04-24T12:25:42.289Z,3.40
2023-04-24T12:28:12.710Z,3.87
2023-04-24T12:30:41.348Z,3.43
2023-04-24T12:33:07.567Z,2.70
2023-04-24T12:35:35.687Z,2.27
2023-04-24T12:38:10.558Z,2.57
2023-04-24T12:40:36.657Z,2.57
2023-04-24T12:43:13.946Z,2.10
2023-04-24T12:45:41.012Z,2.20
2023-04-24T12:48:07.133Z,2.23
2023-04-24T12:50:33.312Z,1.90
2023-04-24T12:52:59.431Z,2.57
2023-04-24T12:55:25.571Z,1.97
2023-04-24T12:57:52.102Z,1.73
2023-04-24T13:00:20.286Z,1.63
2023-04-24T13:02:46.796Z,1.60
2023-04-24T13:05:14.041Z,1.70
2023-04-24T13:07:40.390Z,1.30
2023-04-24T13:10:07.698Z,1.47
2023-04-24T13:12:33.951Z,2.07
2023-04-24T13:15:00.092Z,1.53
2023-04-24T13:17:26.989Z,1.70
2023-04-24T13:19:55.439Z,1.30
2023-04-24T13:22:21.767Z,1.50
2023-04-24T13:24:49.476Z,2.43
2023-04-24T13:27:15.964Z,1.60
2023-04-24T13:29:42.157Z,1.30
2023-04-24T13:32:08.520Z,1.63
2023-04-24T13:34:35.447Z,1.67
2023-04-24T13:37:03.803Z,1.67
2023-04-24T13:39:30.181Z,1.60
2023-04-24T13:41:56.359Z,2.17
2023-04-24T13:44:23.704Z,1.90
2023-04-24T13:46:52.476Z,1.80
2023-04-24T13:49:19.007Z,2.00
2023-04-24T13:51:46.227Z,1.97
2023-04-24T13:54:12.370Z,1.80
2023-04-24T13:56:39.384Z,1.73
2023-04-24T13:59:05.829Z,1.70
2023-04-24T14:01:32.024Z,1.80
2023-04-24T14:03:58.367Z,2.00
2023-04-24T14:06:24.749Z,1.73
2023-04-24T14:08:51.679Z,1.90
2023-04-24T14:11:18.412Z,1.80
2023-04-24T14:13:45.608Z,1.70
2023-04-24T14:16:12.468Z,2.13
2023-04-24T14:18:38.715Z,1.90
2023-04-24T14:21:05.517Z,1.80
2023-04-24T14:23:31.649Z,2.10
2023-04-24T14:25:58.784Z,1.80
2023-04-24T14:28:25.637Z,1.50
2023-04-24T14:30:51.820Z,1.70
2023-04-24T14:33:18.285Z,1.57
2023-04-24T14:35:44.663Z,1.30
2023-04-24T14:38:10.923Z,1.47
2023-04-24T14:41:04.837Z,1.73
2023-04-24T14:43:24.404Z,1.50
2023-04-24T14:45:50.551Z,1.77
2023-04-24T14:48:17.895Z,1.33
2023-04-24T14:50:44.196Z,1.63
2023-04-24T14:53:10.559Z,1.27
2023-04-24T14:55:36.904Z,1.60
2023-04-24T14:58:03.722Z,1.30
2023-04-24T15:00:30.728Z,1.50
2023-04-24T15:02:57.085Z,1.97
2023-04-24T15:05:25.271Z,1.30
2023-04-24T15:07:51.651Z,1.40
2023-04-24T15:10:18.019Z,1.70
2023-04-24T15:12:44.418Z,1.60
2023-04-24T15:15:10.826Z,2.00
2023-04-24T15:17:37.615Z,1.60
2023-04-24T15:20:06.574Z,1.23
2023-04-24T15:22:32.869Z,1.93
2023-04-24T15:24:59.141Z,1.60
2023-04-24T15:27:25.384Z,1.47
2023-04-24T15:29:51.550Z,1.50
2023-04-24T15:32:17.951Z,1.77
2023-04-24T15:34:45.917Z,1.30
2023-04-24T15:37:12.159Z,1.50
2023-04-24T15:39:38.442Z,2.00
2023-04-24T15:42:04.778Z,1.43
2023-04-24T15:44:30.919Z,1.60
2023-04-24T15:46:57.127Z,1.63
2023-04-24T15:49:23.308Z,1.80
2023-04-24T15:51:50.120Z,1.90
2023-04-24T15:54:16.252Z,2.13
2023-04-24T15:56:43.819Z,1.83
2023-04-24T15:59:10.120Z,2.00
2023-04-24T16:01:36.352Z,1.60
2023-04-24T16:04:02.731Z,1.77
2023-04-24T16:06:28.973Z,2.20
2023-04-24T16:08:58.123Z,2.27
2023-04-24T16:11:25.863Z,1.60
2023-04-24T16:13:52.036Z,1.77
2023-04-24T16:16:18.383Z,1.53
2023-04-24T16:18:44.606Z,1.63
2023-04-24T16:21:10.873Z,1.80
2023-04-24T16:23:37.131Z,1.53
2023-04-24T16:26:04.139Z,1.60
2023-04-24T16:28:30.528Z,1.80
2023-04-24T16:30:56.948Z,1.50
2023-04-24T16:33:25.534Z,1.50
2023-04-24T16:35:51.701Z,1.60
2023-04-24T16:38:18.113Z,1.60
2023-04-24T16:40:45.148Z,1.40
2023-04-24T16:43:12.095Z,1.90
2023-04-24T16:45:38.276Z,1.70
2023-04-24T16:48:04.681Z,1.37
2023-04-24T16:50:30.937Z,1.90
2023-04-24T16:52:57.353Z,1.90
2023-04-24T16:55:24.478Z,2.00
2023-04-24T16:57:50.592Z,1.80
2023-04-24T17:00:18.012Z,1.53
2023-04-24T17:02:47.793Z,2.10
2023-04-24T17:05:14.343Z,1.70
2023-04-24T17:07:40.533Z,1.70
2023-04-24T17:10:08.311Z,1.93
2023-04-24T17:12:34.578Z,1.90
2023-04-24T17:15:00.770Z,2.10
2023-04-24T17:17:27.740Z,1.90
2023-04-24T17:19:53.940Z,2.10
2023-04-24T17:22:20.114Z,1.60
2023-04-24T17:24:46.554Z,1.70
2023-04-24T17:27:15.249Z,1.90
2023-04-24T17:29:42.212Z,1.80
2023-04-24T17:32:08.545Z,1.77
2023-04-24T17:34:35.741Z,1.60
2023-04-24T17:37:03.387Z,1.80
2023-04-24T17:39:29.529Z,2.33
2023-04-24T17:41:55.777Z,2.10
2023-04-24T17:44:22.074Z,1.50
2023-04-24T17:46:48.307Z,1.70
2023-04-24T17:49:15.284Z,1.60
2023-04-24T17:51:42.025Z,1.40
2023-04-24T17:54:08.183Z,1.53
2023-04-24T17:56:34.489Z,1.50
2023-04-24T17:59:01.078Z,1.60
2023-04-24T18:01:28.372Z,1.43
2023-04-24T18:03:54.952Z,1.67
2023-04-24T18:06:21.295Z,1.30
2023-04-24T18:08:48.521Z,1.60
2023-04-24T18:11:14.969Z,1.60
2023-04-24T18:13:41.145Z,1.60
2023-04-24T18:16:07.741Z,1.90
2023-04-24T18:18:34.025Z,1.70
2023-04-24T18:21:00.217Z,1.80
2023-04-24T18:23:26.537Z,1.57
2023-04-24T18:25:53.461Z,1.80
2023-04-24T18:28:19.564Z,1.63
2023-04-24T18:30:45.891Z,1.70
2023-04-24T18:33:12.025Z,1.67
2023-04-24T18:35:38.657Z,1.67
2023-04-24T18:38:04.800Z,1.87
2023-04-24T18:40:31.070Z,1.80
2023-04-24T18:42:58.211Z,2.43
2023-04-24T18:45:24.498Z,1.90
2023-04-24T18:47:50.969Z,1.90
2023-04-24T18:50:18.513Z,2.43
2023-04-24T18:52:44.870Z,2.30
2023-04-24T18:55:11.211Z,2.13
2023-04-24T18:57:37.360Z,2.30
2023-04-24T19:00:05.618Z,2.50
2023-04-24T19:02:32.533Z,2.40
2023-04-24T19:04:58.704Z,2.27
2023-04-24T19:07:24.933Z,2.03
2023-04-24T19:09:51.087Z,2.30
2023-04-24T19:12:17.469Z,2.40
2023-04-24T19:14:43.648Z,1.97
2023-04-24T19:17:10.428Z,2.20
2023-04-24T19:19:36.563Z,2.30
2023-04-24T19:22:03.071Z,2.40
2023-04-24T19:24:32.294Z,2.17
2023-04-24T19:26:58.553Z,2.33
2023-04-24T19:29:24.780Z,2.20
2023-04-24T19:31:53.612Z,2.57
2023-04-24T19:34:20.592Z,2.50
2023-04-24T19:36:46.738Z,3.00
2023-04-24T19:39:12.947Z,2.60
2023-04-24T19:41:39.109Z,2.10
2023-04-24T19:44:05.565Z,2.50
2023-04-24T19:46:32.314Z,2.40
2023-04-24T19:48:58.556Z,2.60
2023-04-24T19:51:25.470Z,2.53
2023-04-24T19:53:51.951Z,2.67
2023-04-24T19:56:18.067Z,2.83
2023-04-24T19:58:44.198Z,2.63
2023-04-24T20:01:10.451Z,2.90
2023-04-24T20:03:36.950Z,3.00
2023-04-24T20:06:03.691Z,2.90
2023-04-24T20:08:30.504Z,2.90
2023-04-24T20:10:57.402Z,2.93
2023-04-24T20:13:24.049Z,3.27
2023-04-24T20:15:50.219Z,2.93
2023-04-24T20:18:16.433Z,3.27
2023-04-24T20:20:42.705Z,3.20
2023-04-24T20:23:08.865Z,3.20
2023-04-24T20:25:35.772Z,3.30
2023-04-24T20:28:01.982Z,3.30
2023-04-24T20:30:28.135Z,3.33
2023-04-24T20:32:54.312Z,2.97
2023-04-24T20:35:20.474Z,3.00
2023-04-24T20:37:47.027Z,3.10
2023-04-24T20:40:13.488Z,3.53
2023-04-24T20:42:40.322Z,3.20
2023-04-24T20:45:07.498Z,3.00
2023-04-24T20:47:34.026Z,3.53
2023-04-24T20:50:02.088Z,3.70
2023-04-24T20:52:28.746Z,3.30
2023-04-24T20:54:55.001Z,3.13
2023-04-24T20:57:21.154Z,3.13
2023-04-24T20:59:47.965Z,2.97
2023-04-24T21:02:14.266Z,3.00
2023-04-24T21:04:40.668Z,3.57
2023-04-24T21:07:08.566Z,3.20
2023-04-24T21:09:34.866Z,3.13
2023-04-24T21:12:02.062Z,2.73
2023-04-24T21:14:28.543Z,3.10
2023-04-24T21:16:57.657Z,3.17
2023-04-24T21:19:24.105Z,2.60
2023-04-24T21:21:50.247Z,3.13
2023-04-24T21:24:16.510Z,3.23
2023-04-24T21:26:42.622Z,2.87
2023-04-24T21:29:08.778Z,3.10
2023-04-24T21:31:34.951Z,3.17
2023-04-24T21:34:01.757Z,3.60
2023-04-24T21:36:28.258Z,2.93
2023-04-24T21:38:54.894Z,3.07
2023-04-24T21:41:21.010Z,3.23
2023-04-24T21:43:48.408Z,3.20
2023-04-24T21:46:16.691Z,3.50
2023-04-24T21:48:42.846Z,3.60
2023-04-24T21:51:09.969Z,3.50
2023-04-24T21:53:36.087Z,3.57
2023-04-24T21:56:02.258Z,3.70
2023-04-24T21:58:28.540Z,3.60
2023-04-24T22:00:54.694Z,4.17
2023-04-24T22:03:20.954Z,3.63
2023-04-24T22:05:47.250Z,3.80
2023-04-24T22:08:13.979Z,3.90
2023-04-24T22:10:40.317Z,3.97
2023-04-24T22:13:06.491Z,3.97
2023-04-24T22:15:32.710Z,3.87
2023-04-24T22:18:00.455Z,4.10
2023-04-24T22:20:26.661Z,3.90
2023-04-24T22:22:52.769Z,4.03
2023-04-24T22:25:19.646Z,4.03
2023-04-24T22:27:45.876Z,4.40
2023-04-24T22:30:12.515Z,3.73
2023-04-24T22:32:38.722Z,4.67
2023-04-24T22:35:05.605Z,4.37
2023-04-24T22:37:31.727Z,3.97
2023-04-24T22:39:59.182Z,4.40
2023-04-24T22:42:26.090Z,3.77
2023-04-24T22:44:52.304Z,4.20
2023-04-24T22:47:19.205Z,4.07
2023-04-24T22:49:45.626Z,4.57
2023-04-24T22:52:13.691Z,4.63
2023-04-24T22:54:39.818Z,4.20
2023-04-24T22:57:05.957Z,4.43
2023-04-24T22:59:32.714Z,5.27
2023-04-24T23:01:58.921Z,4.87
2023-04-24T23:04:25.523Z,4.67
2023-04-24T23:06:51.706Z,4.93
2023-04-24T23:09:17.811Z,4.30
2023-04-24T23:11:43.954Z,4.53
2023-04-24T23:14:10.085Z,4.43
2023-04-24T23:16:38.019Z,5.20
2023-04-24T23:19:04.316Z,4.57
2023-04-24T23:21:31.334Z,4.20
2023-04-24T23:23:57.630Z,4.70
2023-04-24T23:26:23.768Z,4.20
2023-04-24T23:28:49.893Z,4.80
2023-04-24T23:31:16.031Z,4.73
2023-04-24T23:33:42.754Z,4.67
2023-04-24T23:36:09.200Z,4.77
2023-04-24T23:38:46.691Z,4.57
2023-04-24T23:41:16.125Z,4.33
2023-04-24T23:43:42.393Z,4.43
2023-04-24T23:46:08.560Z,4.63
2023-04-24T23:48:36.211Z,5.37
2023-04-24T23:51:03.051Z,4.90
2023-04-24T23:53:29.370Z,4.37
2023-04-24T23:55:55.607Z,4.40
2023-04-24T23:58:21.714Z,4.30
